createdAt,value
2022-11-19T00:02:14.907Z,74.64284
2022-11-19T00:07:16.486Z,75.96372
2022-11-19T00:12:18.159Z,72.91098
2022-11-19T00:17:19.661Z,72.67492
2022-11-19T00:22:21.100Z,72.33121
2022-11-19T00:27:22.936Z,71.01168
2022-11-19T00:32:25.011Z,71.69048
2022-11-19T00:37:26.602Z,69.58213
2022-11-19T00:42:28.332Z,70.0897
2022-11-19T00:47:29.866Z,71.6483
2022-11-19T00:52:31.438Z,70.09146
2022-11-19T00:57:32.970Z,70.0583
2022-11-19T01:02:34.925Z,70.50476
2022-11-19T01:07:36.506Z,70.55451
2022-11-19T01:12:38.034Z,69.68543
2022-11-19T01:17:39.557Z,69.39016
2022-11-19T01:22:41.109Z,72.5424
2022-11-19T01:27:42.606Z,69.304
2022-11-19T01:32:44.451Z,70.77958
2022-11-19T01:37:45.932Z,70.21221
2022-11-19T01:42:47.532Z,71.06179
2022-11-19T01:47:49.111Z,70.37457
2022-11-19T01:52:50.827Z,73.88977
2022-11-19T01:57:52.607Z,72.89513
2022-11-19T02:02:54.366Z,73.38687
2022-11-19T02:07:55.936Z,72.93541
2022-11-19T02:12:57.460Z,73.16837
2022-11-19T02:17:59.348Z,76.27229
2022-11-19T02:23:00.876Z,74.72313
2022-11-19T02:28:02.336Z,75.4876
2022-11-19T02:33:04.363Z,76.06215
2022-11-19T02:38:05.944Z,77.35676
2022-11-19T02:43:07.453Z,76.65616
2022-11-19T02:48:09.039Z,76.11792
2022-11-19T02:53:10.558Z,77.54636
2022-11-19T02:58:11.998Z,79.45403
2022-11-19T03:03:14.334Z,79.15156
2022-11-19T03:08:15.856Z,79.44131
2022-11-19T03:13:17.304Z,78.63583
2022-11-19T03:18:18.769Z,76.79237
2022-11-19T03:23:20.268Z,75.99117
2022-11-19T03:28:21.976Z,79.67906
2022-11-19T03:33:23.901Z,77.75319
2022-11-19T03:38:25.538Z,78.98962
2022-11-19T03:43:27.075Z,79.58309
2022-11-19T03:48:28.754Z,79.93803
2022-11-19T03:53:30.420Z,77.72459
2022-11-19T03:58:31.908Z,79.18022
2022-11-19T04:03:33.597Z,78.18464
2022-11-19T04:08:35.117Z,77.42736
2022-11-19T04:13:36.648Z,76.8149
2022-11-19T04:18:38.235Z,77.88498
2022-11-19T04:23:39.756Z,77.01653
2022-11-19T04:28:41.328Z,76.18883
2022-11-19T04:33:43.222Z,75.29495
2022-11-19T04:38:44.793Z,75.35517
2022-11-19T04:43:46.316Z,73.90694
2022-11-19T04:48:48.142Z,74.75175
2022-11-19T04:53:49.764Z,68.95402
2022-11-19T04:58:51.456Z,70.6451
2022-11-19T05:03:53.397Z,68.71853
2022-11-19T05:08:54.883Z,67.77846
2022-11-19T05:13:56.405Z,65.0764
2022-11-19T05:18:57.973Z,63.5741
2022-11-19T05:23:59.477Z,60.95697
2022-11-19T05:29:00.952Z,59.51377
2022-11-19T05:34:02.660Z,57.30026
2022-11-19T05:39:04.125Z,59.90129
2022-11-19T05:44:05.655Z,57.37417
2022-11-19T05:49:07.485Z,55.75531
2022-11-19T05:54:09.218Z,55.65029
2022-11-19T05:59:10.793Z,53.03059
2022-11-19T06:04:12.828Z,53.9343
2022-11-19T06:09:14.559Z,55.4386
2022-11-19T06:14:16.615Z,52.63587
2022-11-19T06:19:18.812Z,55.77893
2022-11-19T06:24:20.662Z,50.56538
2022-11-19T06:29:22.598Z,51.39657
2022-11-19T06:34:24.659Z,49.1829
2022-11-19T06:39:27.880Z,46.78529
2022-11-19T06:44:29.357Z,47.24211
2022-11-19T06:49:31.005Z,43.33474
2022-11-19T06:54:32.900Z,42.22505
2022-11-19T06:59:34.792Z,39.06936
2022-11-19T07:04:37.098Z,42.5451
2022-11-19T07:09:39.131Z,43.43724
2022-11-19T07:14:41.083Z,42.9275
2022-11-19T07:19:43.252Z,42.67417
2022-11-19T07:24:45.269Z,41.92174
2022-11-19T07:29:47.223Z,40.75485
2022-11-19T07:34:49.451Z,39.96751
2022-11-19T07:39:51.410Z,37.19
2022-11-19T07:44:54.897Z,31.87569
2022-11-19T07:49:56.726Z,32.08216
2022-11-19T07:54:58.326Z,35.38755
2022-11-19T07:59:59.827Z,33.17507
2022-11-19T08:05:01.793Z,31.24149
2022-11-19T08:10:03.356Z,28.56647
2022-11-19T08:15:05.057Z,27.14964
2022-11-19T08:20:06.671Z,25.84188
2022-11-19T08:25:08.369Z,27.45716
2022-11-19T08:30:10.269Z,24.1759
2022-11-19T08:35:12.454Z,26.19316
2022-11-19T08:40:14.325Z,24.74028
2022-11-19T08:45:20.635Z,25.09629
2022-11-19T08:50:22.535Z,24.28657
2022-11-19T08:55:24.072Z,22.7649
2022-11-19T09:00:26.374Z,24.90269
2022-11-19T09:05:28.132Z,23.83772
2022-11-19T09:10:29.683Z,23.92325
2022-11-19T09:15:31.242Z,25.5492
2022-11-19T09:20:32.833Z,24.66703
2022-11-19T09:25:34.397Z,24.01206
2022-11-19T09:30:35.873Z,22.58797
2022-11-19T09:35:37.731Z,24.39895
2022-11-19T09:40:39.249Z,24.59695
2022-11-19T09:45:40.918Z,23.76919
2022-11-19T09:50:42.949Z,23.10262
2022-11-19T09:55:44.915Z,24.88909
2022-11-19T10:00:46.987Z,22.96416
2022-11-19T10:05:49.288Z,25.6758
2022-11-19T10:10:51.249Z,30.09256
2022-11-19T10:15:53.415Z,31.09937
2022-11-19T10:20:55.530Z,30.88285
2022-11-19T10:25:57.199Z,32.19715
2022-11-19T10:30:58.902Z,32.00932
2022-11-19T10:36:00.756Z,31.73195
2022-11-19T10:41:02.259Z,32.73645
2022-11-19T10:46:03.900Z,31.41303
2022-11-19T10:51:06.088Z,32.04017
2022-11-19T10:56:07.596Z,32.41088
2022-11-19T11:01:09.472Z,32.33248
2022-11-19T11:06:11.377Z,31.01651
2022-11-19T11:11:12.997Z,32.33099
2022-11-19T11:16:14.551Z,30.51997
2022-11-19T11:21:16.232Z,30.57423
2022-11-19T11:26:17.859Z,28.86833
2022-11-19T11:31:19.439Z,29.33201
2022-11-19T11:36:21.246Z,29.06525
2022-11-19T11:46:54.920Z,27.51386
2022-11-19T11:51:56.944Z,28.69634
2022-11-19T11:56:58.886Z,26.82493
2022-11-19T12:02:00.594Z,26.10836
2022-11-19T12:07:02.650Z,27.45972
2022-11-19T12:12:04.262Z,25.57652
2022-11-19T12:17:07.483Z,25.09751
2022-11-19T12:22:09.151Z,22.90446
2022-11-19T12:27:11.069Z,21.85992
2022-11-19T12:32:12.865Z,21.28687
2022-11-19T12:37:14.565Z,20.20894
2022-11-19T12:42:16.654Z,21.8354
2022-11-19T12:47:18.412Z,21.08312
2022-11-19T12:52:20.448Z,21.58562
2022-11-19T12:57:22.236Z,20.86575
2022-11-19T13:02:24.062Z,21.35724
2022-11-19T13:07:26.272Z,21.5512
2022-11-19T13:12:27.790Z,21.98296
2022-11-19T13:17:29.863Z,22.69916
2022-11-19T13:22:32.044Z,23.32051
2022-11-19T13:27:33.997Z,23.96711
2022-11-19T13:32:35.819Z,22.79053
2022-11-19T13:37:38.096Z,21.98914
2022-11-19T13:42:39.900Z,22.46163
2022-11-19T13:47:41.964Z,23.71256
2022-11-19T13:52:43.782Z,24.0782
2022-11-19T13:57:45.722Z,23.39709
2022-11-19T14:02:47.637Z,24.29288
2022-11-19T14:07:49.926Z,24.16548
2022-11-19T14:12:51.752Z,24.42716
2022-11-19T14:17:53.719Z,24.74069
2022-11-19T14:22:55.652Z,24.39527
2022-11-19T14:27:57.525Z,23.85743
2022-11-19T14:32:59.667Z,23.41504
2022-11-19T14:38:01.471Z,23.35628
2022-11-19T14:43:02.986Z,23.2049
2022-11-19T14:48:04.523Z,23.43853
2022-11-19T14:53:05.992Z,23.94377
2022-11-19T14:58:07.504Z,23.7695
2022-11-19T15:03:09.264Z,24.50739
2022-11-19T15:08:11.090Z,23.62256
2022-11-19T15:13:12.599Z,23.22126
2022-11-19T15:18:14.076Z,23.83068
2022-11-19T15:23:15.808Z,23.49223
2022-11-19T15:28:17.780Z,23.61972
2022-11-19T15:33:19.376Z,24.35661
2022-11-19T15:38:21.209Z,24.04456
2022-11-19T15:43:22.734Z,24.17927
2022-11-19T15:48:24.392Z,25.29756
2022-11-19T15:53:26.289Z,26.28071
2022-11-19T15:58:28.177Z,25.8426
2022-11-19T16:03:29.697Z,25.51764
2022-11-19T16:08:31.630Z,26.26775
2022-11-19T16:13:33.221Z,26.75696
2022-11-19T16:18:34.757Z,27.75116
2022-11-19T16:23:36.422Z,27.88061
2022-11-19T16:28:38.140Z,28.491
2022-11-19T16:33:39.990Z,29.33201
2022-11-19T16:38:42.060Z,28.20818
2022-11-19T16:43:43.775Z,29.15495
2022-11-19T16:48:45.488Z,30.04222
2022-11-19T16:53:47.228Z,31.39494
2022-11-19T16:58:48.721Z,31.37602
2022-11-19T17:03:50.212Z,33.15578
2022-11-19T17:08:52.059Z,31.75117
2022-11-19T17:13:53.759Z,32.17506
2022-11-19T17:18:55.672Z,33.23666
2022-11-19T17:23:57.556Z,33.21681
2022-11-19T17:28:59.376Z,34.87125
2022-11-19T17:34:00.842Z,35.48158
2022-11-19T17:39:02.806Z,36.43012
2022-11-19T17:44:04.368Z,36.50441
2022-11-19T17:49:05.948Z,36.10043
2022-11-19T17:54:07.669Z,37.16423
2022-11-19T17:59:09.310Z,37.1908
2022-11-19T18:04:10.984Z,37.31827
2022-11-19T18:09:13.139Z,39.08491
2022-11-19T18:14:15.049Z,38.91635
2022-11-19T18:19:16.606Z,41.82156
2022-11-19T18:24:18.283Z,39.92812
2022-11-19T18:29:20.188Z,40.86712
2022-11-19T18:34:22.112Z,38.51039
2022-11-19T18:39:24.188Z,40.4497
2022-11-19T18:44:32.547Z,40.34059
2022-11-19T18:49:34.448Z,41.45466
2022-11-19T18:54:36.199Z,44.38269
2022-11-19T18:59:38.987Z,44.09476
2022-11-19T19:04:41.033Z,41.43789
2022-11-19T19:10:25.157Z,46.61842
2022-11-19T19:15:26.673Z,41.16166
2022-11-19T19:20:28.598Z,41.2282
2022-11-19T19:25:30.137Z,44.27808
2022-11-19T19:30:31.991Z,41.65269
2022-11-19T19:35:33.697Z,44.91021
2022-11-19T19:40:35.770Z,45.23346
2022-11-19T19:45:37.565Z,45.97472
2022-11-19T19:50:39.421Z,46.55871
2022-11-19T19:55:41.206Z,47.53138
2022-11-19T20:00:43.082Z,46.66202
2022-11-19T20:05:44.852Z,46.88565
2022-11-19T20:10:46.714Z,48.38917
2022-11-19T20:15:48.235Z,45.20677
2022-11-19T20:20:49.725Z,45.32657
2022-11-19T20:25:51.332Z,46.11199
2022-11-19T20:30:53.117Z,44.03969
2022-11-19T20:35:54.630Z,45.81108
2022-11-19T20:40:56.293Z,46.25894
2022-11-19T20:45:57.767Z,46.43113
2022-11-19T20:50:59.332Z,47.43859
2022-11-19T20:56:05.260Z,45.27591
2022-11-19T21:01:07.061Z,45.48338
2022-11-19T21:06:08.555Z,47.10447
2022-11-19T21:11:10.244Z,48.1603
2022-11-19T21:16:11.864Z,48.50345
2022-11-19T21:21:13.339Z,48.08217
2022-11-19T21:26:14.831Z,46.56021
2022-11-19T21:31:16.528Z,46.66571
2022-11-19T21:36:17.993Z,47.04631
2022-11-19T21:41:19.711Z,49.22846
2022-11-19T21:46:21.341Z,49.83697
2022-11-19T21:51:24.860Z,46.91787
2022-11-19T21:56:26.791Z,45.59655
2022-11-19T22:01:28.274Z,49.49777
2022-11-19T22:06:29.797Z,49.32398
2022-11-19T22:11:32.186Z,49.24016
2022-11-19T22:16:33.872Z,49.80195
2022-11-19T22:21:35.431Z,50.92662
2022-11-19T22:26:37.010Z,51.30141
2022-11-19T22:31:38.447Z,49.98994
2022-11-19T22:36:39.973Z,51.10367
2022-11-19T22:41:41.831Z,50.92038
2022-11-19T22:46:43.278Z,53.04246
2022-11-19T22:51:44.812Z,49.33191
2022-11-19T22:56:46.278Z,50.18968
2022-11-19T23:01:47.693Z,50.48088
2022-11-19T23:06:49.202Z,51.12813
2022-11-19T23:11:51.176Z,52.92166
2022-11-19T23:16:52.770Z,52.96409
2022-11-19T23:21:54.289Z,52.86311
2022-11-19T23:26:55.731Z,52.79814
2022-11-19T23:31:57.368Z,54.42237
2022-11-19T23:36:59.049Z,54.48054
2022-11-19T23:42:00.952Z,51.6552
2022-11-19T23:47:02.382Z,51.61502
2022-11-19T23:52:03.888Z,54.46937
2022-11-19T23:57:05.476Z,56.02505
